createdAt,value
2023-07-03T00:01:36.718Z,20.27
2023-07-03T00:04:05.762Z,26.93
2023-07-03T00:06:38.344Z,20.87
2023-07-03T00:09:10.778Z,20.70
2023-07-03T00:11:39.304Z,22.30
2023-07-03T00:14:08.734Z,23.13
2023-07-03T00:16:37.921Z,21.73
2023-07-03T00:19:07.996Z,26.07
2023-07-03T00:21:45.080Z,22.83
2023-07-03T00:24:16.507Z,24.13
2023-07-03T00:26:45.482Z,26.40
2023-07-03T00:29:14.287Z,24.77
2023-07-03T00:31:43.194Z,19.40
2023-07-03T00:34:12.776Z,27.40
2023-07-03T00:36:43.902Z,21.73
2023-07-03T00:39:14.122Z,25.77
2023-07-03T00:41:43.124Z,22.77
2023-07-03T00:44:15.716Z,22.37
2023-07-03T00:46:49.729Z,32.60
2023-07-03T00:49:20.777Z,26.30
2023-07-03T00:51:54.845Z,26.70
2023-07-03T00:54:26.411Z,26.33
2023-07-03T00:56:55.498Z,21.97
2023-07-03T00:59:24.915Z,21.57
2023-07-03T01:02:00.090Z,20.93
2023-07-03T01:04:37.433Z,30.60
2023-07-03T01:07:12.292Z,22.00
2023-07-03T01:09:48.949Z,26.27
2023-07-03T01:12:21.898Z,28.70
2023-07-03T01:14:51.749Z,24.50
2023-07-03T01:17:21.264Z,26.27
2023-07-03T01:19:53.344Z,26.77
2023-07-03T01:22:28.333Z,26.47
2023-07-03T01:25:03.256Z,24.27
2023-07-03T01:27:37.022Z,20.97
2023-07-03T01:30:12.225Z,23.10
2023-07-03T01:32:41.743Z,25.33
2023-07-03T01:35:13.898Z,27.60
2023-07-03T01:37:48.240Z,19.80
2023-07-03T01:40:26.184Z,18.40
2023-07-03T01:42:57.440Z,18.10
2023-07-03T01:45:29.285Z,21.07
2023-07-03T01:47:59.281Z,20.60
2023-07-03T01:50:34.537Z,24.53
2023-07-03T01:53:09.961Z,24.23
2023-07-03T01:55:48.220Z,22.90
2023-07-03T01:58:30.146Z,19.87
2023-07-03T02:01:04.189Z,25.10
2023-07-03T02:03:38.499Z,21.53
2023-07-03T02:06:15.247Z,23.63
2023-07-03T02:08:44.109Z,26.13
2023-07-03T02:11:22.027Z,18.80
2023-07-03T02:13:54.738Z,21.37
2023-07-03T02:16:31.008Z,23.60
2023-07-03T02:19:01.834Z,20.60
2023-07-03T02:21:31.324Z,21.20
2023-07-03T02:24:00.329Z,24.10
2023-07-03T02:26:30.676Z,24.53
2023-07-03T02:29:01.956Z,19.83
2023-07-03T02:31:32.490Z,20.70
2023-07-03T02:34:01.552Z,22.43
2023-07-03T02:36:36.049Z,19.10
2023-07-03T02:39:06.396Z,25.00
2023-07-03T02:41:36.858Z,25.80
2023-07-03T02:44:06.873Z,23.27
2023-07-03T02:46:36.926Z,21.43
2023-07-03T02:49:05.670Z,23.13
2023-07-03T02:51:34.562Z,28.50
2023-07-03T02:54:09.277Z,22.73
2023-07-03T02:56:39.841Z,24.93
2023-07-03T02:59:09.308Z,24.20
2023-07-03T03:01:40.254Z,27.40
2023-07-03T03:04:10.260Z,20.77
2023-07-03T03:06:41.587Z,31.70
2023-07-03T03:09:10.493Z,27.27
2023-07-03T03:11:41.535Z,21.33
2023-07-03T03:14:14.509Z,24.00
2023-07-03T03:16:46.292Z,26.83
2023-07-03T03:19:15.698Z,22.03
2023-07-03T03:21:45.618Z,22.87
2023-07-03T03:24:14.377Z,24.03
2023-07-03T03:26:46.372Z,23.83
2023-07-03T03:29:17.217Z,21.53
2023-07-03T03:31:46.663Z,24.27
2023-07-03T03:34:16.295Z,30.40
2023-07-03T03:36:46.810Z,26.00
2023-07-03T03:39:16.317Z,26.87
2023-07-03T03:41:49.192Z,25.70
2023-07-03T03:44:18.047Z,22.63
2023-07-03T03:46:48.969Z,23.57
2023-07-03T03:49:19.087Z,24.57
2023-07-03T03:51:49.840Z,22.70
2023-07-03T03:54:21.242Z,20.70
2023-07-03T03:56:51.264Z,21.27
2023-07-03T03:59:23.130Z,28.57
2023-07-03T04:01:53.867Z,27.40
2023-07-03T04:04:23.261Z,28.40
2023-07-03T04:06:53.978Z,19.20
2023-07-03T04:09:22.948Z,37.63
2023-07-03T04:11:53.418Z,23.33
2023-07-03T04:14:24.271Z,24.10
2023-07-03T04:16:56.720Z,24.30
2023-07-03T04:19:26.501Z,29.87
2023-07-03T04:21:58.682Z,23.60
2023-07-03T04:24:28.305Z,33.93
2023-07-03T04:27:00.278Z,23.93
2023-07-03T04:29:29.210Z,26.37
2023-07-03T04:31:58.110Z,29.07
2023-07-03T04:34:27.318Z,25.97
2023-07-03T04:36:56.497Z,21.90
2023-07-03T04:39:27.112Z,27.97
2023-07-03T04:41:57.804Z,22.07
2023-07-03T04:44:28.025Z,19.80
2023-07-03T04:46:57.453Z,28.43
2023-07-03T04:49:27.686Z,21.50
2023-07-03T04:51:59.884Z,23.90
2023-07-03T04:54:29.907Z,21.50
2023-07-03T04:56:59.677Z,22.90
2023-07-03T04:59:30.689Z,20.93
2023-07-03T05:01:59.784Z,24.60
2023-07-03T05:04:29.294Z,19.70
2023-07-03T05:06:59.092Z,23.40
2023-07-03T05:09:27.984Z,20.53
2023-07-03T05:11:57.973Z,24.57
2023-07-03T05:14:36.696Z,32.37
2023-07-03T05:17:06.289Z,20.67
2023-07-03T05:19:35.574Z,19.87
2023-07-03T05:22:05.155Z,20.20
2023-07-03T05:24:35.562Z,22.87
2023-07-03T05:27:04.555Z,24.13
2023-07-03T05:29:36.933Z,24.47
2023-07-03T05:32:08.262Z,19.73
2023-07-03T05:34:40.014Z,17.63
2023-07-03T05:37:09.819Z,21.10
2023-07-03T05:39:41.239Z,25.63
2023-07-03T05:42:11.265Z,26.07
2023-07-03T05:44:42.676Z,23.80
2023-07-03T05:47:12.422Z,22.50
2023-07-03T05:49:41.960Z,19.73
2023-07-03T05:52:13.229Z,27.27
2023-07-03T05:54:41.984Z,17.00
2023-07-03T05:57:12.667Z,21.37
2023-07-03T05:59:43.118Z,19.73
2023-07-03T06:02:15.159Z,26.43
2023-07-03T06:04:44.316Z,17.47
2023-07-03T06:07:13.420Z,22.00
2023-07-03T06:09:42.546Z,18.40
2023-07-03T06:12:11.669Z,19.23
2023-07-03T06:14:42.108Z,23.13
2023-07-03T06:17:14.174Z,20.47
2023-07-03T06:19:43.702Z,15.83
2023-07-03T06:22:12.983Z,20.53
2023-07-03T06:24:43.245Z,15.20
2023-07-03T06:27:12.419Z,20.40
2023-07-03T06:29:43.215Z,19.40
2023-07-03T06:32:14.451Z,19.40
2023-07-03T06:34:43.837Z,21.47
2023-07-03T06:37:15.065Z,22.47
2023-07-03T06:39:43.628Z,20.00
2023-07-03T06:42:14.392Z,28.23
2023-07-03T06:44:48.674Z,20.43
2023-07-03T06:47:18.763Z,21.53
2023-07-03T06:49:48.635Z,22.77
2023-07-03T06:52:17.392Z,19.33
2023-07-03T06:54:49.361Z,19.07
2023-07-03T06:57:18.214Z,16.57
2023-07-03T06:59:48.655Z,17.40
2023-07-03T07:02:17.748Z,15.23
2023-07-03T07:04:46.753Z,16.60
2023-07-03T07:07:16.860Z,17.70
2023-07-03T07:09:47.996Z,18.50
2023-07-03T07:12:19.269Z,21.53
2023-07-03T07:14:49.652Z,15.50
2023-07-03T07:17:18.421Z,15.30
2023-07-03T07:19:48.742Z,25.63
2023-07-03T07:22:17.716Z,26.57
2023-07-03T07:24:47.847Z,17.40
2023-07-03T07:27:16.784Z,36.70
2023-07-03T07:29:45.767Z,23.40
2023-07-03T07:32:16.335Z,13.97
2023-07-03T07:34:45.156Z,20.10
2023-07-03T07:37:15.086Z,17.10
2023-07-03T07:39:44.809Z,17.40
2023-07-03T07:42:13.756Z,22.77
2023-07-03T07:44:42.889Z,18.20
2023-07-03T07:47:12.238Z,18.73
2023-07-03T07:49:44.137Z,14.57
2023-07-03T07:52:13.257Z,24.27
2023-07-03T07:54:43.435Z,24.60
2023-07-03T07:57:13.400Z,22.53
2023-07-03T07:59:42.589Z,22.70
2023-07-03T08:02:12.228Z,19.47
2023-07-03T08:04:43.801Z,20.87
2023-07-03T08:07:13.811Z,21.63
2023-07-03T08:09:42.354Z,16.13
2023-07-03T08:12:12.185Z,23.33
2023-07-03T08:14:42.042Z,20.63
2023-07-03T08:17:11.042Z,19.77
2023-07-03T08:19:43.095Z,21.33
2023-07-03T08:22:11.657Z,26.60
2023-07-03T08:24:40.594Z,39.50
2023-07-03T08:27:10.026Z,17.47
2023-07-03T08:29:40.122Z,16.57
2023-07-03T08:32:13.586Z,21.20
2023-07-03T08:37:08.116Z,22.00
2023-07-03T08:37:33.116Z,14.60
2023-07-03T08:40:02.343Z,16.27
2023-07-03T08:42:41.522Z,17.57
2023-07-03T08:45:15.639Z,33.83
2023-07-03T08:47:46.382Z,16.67
2023-07-03T08:50:31.991Z,23.40
2023-07-03T08:53:05.683Z,18.03
2023-07-03T08:55:41.676Z,23.63
2023-07-03T08:58:12.762Z,15.63
2023-07-03T09:00:50.887Z,19.73
2023-07-03T09:03:31.765Z,16.77
2023-07-03T09:06:12.959Z,23.20
2023-07-03T09:08:54.988Z,14.63
2023-07-03T09:11:25.560Z,19.60
2023-07-03T09:13:57.985Z,17.90
2023-07-03T09:16:26.890Z,19.53
2023-07-03T09:19:00.667Z,16.53
2023-07-03T09:21:32.793Z,22.33
2023-07-03T09:24:08.869Z,22.03
2023-07-03T09:26:44.939Z,15.30
2023-07-03T09:29:14.625Z,16.27
2023-07-03T09:31:45.771Z,13.93
2023-07-03T09:34:16.802Z,21.20
2023-07-03T09:36:47.568Z,14.03
2023-07-03T09:39:21.880Z,13.87
2023-07-03T09:41:51.363Z,16.80
2023-07-03T09:44:21.522Z,26.97
2023-07-03T09:46:53.051Z,18.07
2023-07-03T09:49:30.209Z,15.60
2023-07-03T09:52:02.306Z,16.13
2023-07-03T09:54:33.206Z,14.33
2023-07-03T09:57:02.086Z,14.47
2023-07-03T09:59:34.766Z,12.17
2023-07-03T10:07:21.386Z,13.13
2023-07-03T10:12:30.025Z,19.50
2023-07-03T10:15:04.254Z,19.13
2023-07-03T10:17:37.269Z,10.43
2023-07-03T10:20:13.706Z,10.47
2023-07-03T10:22:45.760Z,12.80
2023-07-03T10:25:21.310Z,12.83
2023-07-03T10:27:58.062Z,12.47
2023-07-03T10:30:28.340Z,13.80
2023-07-03T10:32:59.991Z,12.90
2023-07-03T10:35:32.080Z,11.57
2023-07-03T10:38:11.786Z,18.00
2023-07-03T10:40:49.472Z,12.40
2023-07-03T10:43:20.347Z,13.27
2023-07-03T10:45:52.725Z,14.30
2023-07-03T10:48:26.607Z,11.93
2023-07-03T10:51:04.264Z,9.17
2023-07-03T10:53:43.614Z,10.27
2023-07-03T10:56:20.878Z,7.97
2023-07-03T10:59:02.167Z,20.00
2023-07-03T11:01:41.307Z,9.10
2023-07-03T11:04:25.847Z,10.97
2023-07-03T11:07:06.072Z,12.20
2023-07-03T11:09:46.037Z,9.43
2023-07-03T11:12:26.147Z,8.33
2023-07-03T11:15:12.753Z,12.97
2023-07-03T11:23:19.868Z,8.70
2023-07-03T11:28:38.614Z,9.60
2023-07-03T11:31:08.421Z,8.77
2023-07-03T11:36:09.538Z,9.20
2023-07-03T11:43:50.967Z,10.43
2023-07-03T11:46:25.570Z,9.10
2023-07-03T11:48:59.201Z,10.03
2023-07-03T11:51:39.635Z,9.13
2023-07-03T11:54:23.999Z,8.67
2023-07-03T11:56:57.699Z,9.00
2023-07-03T11:59:33.891Z,7.73
2023-07-03T12:02:46.983Z,13.73
2023-07-03T12:05:54.918Z,6.50
2023-07-03T12:08:47.024Z,9.83
2023-07-03T12:11:18.119Z,10.60
2023-07-03T12:13:57.542Z,11.70
2023-07-03T12:16:32.070Z,13.00
2023-07-03T12:19:07.581Z,8.70
2023-07-03T12:21:40.927Z,11.93
2023-07-03T12:24:29.938Z,10.40
2023-07-03T12:27:04.668Z,7.03
2023-07-03T12:29:39.447Z,9.17
2023-07-03T12:32:10.765Z,6.77
2023-07-03T12:34:46.425Z,11.40
2023-07-03T12:37:18.940Z,9.00
2023-07-03T12:39:49.017Z,7.63
2023-07-03T12:42:24.233Z,10.90
2023-07-03T12:44:55.580Z,7.90
2023-07-03T12:47:25.534Z,6.10
2023-07-03T12:50:00.330Z,4.07
2023-07-03T12:52:32.078Z,10.30
2023-07-03T12:57:39.147Z,5.30
2023-07-03T13:00:19.691Z,4.10
2023-07-03T13:02:48.461Z,7.50
2023-07-03T13:05:23.791Z,13.03
2023-07-03T13:07:54.874Z,11.63
2023-07-03T13:10:25.133Z,3.33
2023-07-03T13:13:12.958Z,4.53
2023-07-03T13:15:45.794Z,5.23
2023-07-03T13:18:21.060Z,4.40
2023-07-03T13:21:02.611Z,4.90
2023-07-03T13:23:34.660Z,3.63
2023-07-03T13:26:08.436Z,5.77
2023-07-03T13:28:41.285Z,6.90
2023-07-03T13:31:22.034Z,6.10
2023-07-03T13:34:08.180Z,13.53
2023-07-03T13:36:40.882Z,5.00
2023-07-03T13:39:13.955Z,8.43
2023-07-03T13:41:45.405Z,5.73
2023-07-03T13:44:17.251Z,7.37
2023-07-03T13:46:49.879Z,3.53
2023-07-03T13:49:19.921Z,4.50
2023-07-03T13:51:51.936Z,5.03
2023-07-03T13:54:20.947Z,5.80
2023-07-03T13:56:50.236Z,5.43
2023-07-03T13:59:20.583Z,8.57
2023-07-03T14:01:50.819Z,4.27
2023-07-03T14:04:23.001Z,4.83
2023-07-03T14:06:52.039Z,3.73
2023-07-03T14:09:21.524Z,7.83
2023-07-03T14:11:50.122Z,10.90
2023-07-03T14:14:18.816Z,4.30
2023-07-03T14:16:47.800Z,6.97
2023-07-03T14:19:18.558Z,3.70
2023-07-03T14:21:48.743Z,3.67
2023-07-03T14:24:17.471Z,4.23
2023-07-03T14:26:46.758Z,1.63
2023-07-03T14:29:16.229Z,3.03
2023-07-03T14:31:48.030Z,2.87
2023-07-03T14:34:19.391Z,2.30
2023-07-03T14:36:49.009Z,2.17
2023-07-03T14:39:18.438Z,2.87
2023-07-03T14:41:48.634Z,4.47
2023-07-03T14:44:17.665Z,3.23
2023-07-03T14:46:46.701Z,3.13
2023-07-03T14:49:16.131Z,2.70
2023-07-03T14:51:46.694Z,4.10
2023-07-03T14:54:15.912Z,2.63
2023-07-03T14:56:45.112Z,2.43
2023-07-03T14:59:14.314Z,5.03
2023-07-03T15:01:44.589Z,3.00
2023-07-03T15:04:16.070Z,4.70
2023-07-03T15:06:48.174Z,2.53
2023-07-03T15:09:16.868Z,6.37
2023-07-03T15:11:45.958Z,1.20
2023-07-03T15:14:14.725Z,3.07
2023-07-03T15:16:43.741Z,2.30
2023-07-03T15:19:14.686Z,4.33
2023-07-03T15:21:46.476Z,5.13
2023-07-03T15:24:18.701Z,5.77
2023-07-03T15:26:47.295Z,2.40
2023-07-03T15:29:16.627Z,3.70
2023-07-03T15:31:46.337Z,3.03
2023-07-03T15:34:14.976Z,5.17
2023-07-03T15:36:43.667Z,3.33
2023-07-03T15:39:14.188Z,3.77
2023-07-03T15:41:43.288Z,2.70
2023-07-03T15:44:11.998Z,2.83
2023-07-03T15:46:43.339Z,3.17
2023-07-03T15:49:12.978Z,2.33
2023-07-03T15:51:42.053Z,3.43
2023-07-03T15:54:12.848Z,3.17
2023-07-03T15:56:41.973Z,3.60
2023-07-03T15:59:13.183Z,3.40
2023-07-03T16:01:42.357Z,4.47
2023-07-03T16:04:13.177Z,3.07
2023-07-03T16:06:42.112Z,5.27
2023-07-03T16:09:12.713Z,6.07
2023-07-03T16:11:41.699Z,6.10
2023-07-03T16:14:13.341Z,1.97
2023-07-03T16:16:42.798Z,2.33
2023-07-03T16:19:11.923Z,1.60
2023-07-03T16:21:42.497Z,1.87
2023-07-03T16:24:14.749Z,2.23
2023-07-03T16:26:43.568Z,3.43
2023-07-03T16:29:12.744Z,3.50
2023-07-03T16:31:46.096Z,2.40
2023-07-03T16:34:15.620Z,2.27
2023-07-03T16:36:44.578Z,3.27
2023-07-03T16:39:15.073Z,3.03
2023-07-03T16:41:45.164Z,2.80
2023-07-03T16:44:13.986Z,2.03
2023-07-03T16:46:43.494Z,4.73
2023-07-03T16:49:12.578Z,6.47
2023-07-03T16:51:41.718Z,2.37
2023-07-03T16:54:11.081Z,3.53
2023-07-03T16:56:41.131Z,2.00
2023-07-03T16:59:10.103Z,3.47
2023-07-03T17:01:39.215Z,4.40
2023-07-03T17:04:08.196Z,1.80
2023-07-03T17:06:37.900Z,1.67
2023-07-03T17:09:07.583Z,3.27
2023-07-03T17:11:36.630Z,8.27
2023-07-03T17:14:06.744Z,6.63
2023-07-03T17:16:36.495Z,1.80
2023-07-03T17:19:05.607Z,3.13
2023-07-03T17:21:35.419Z,6.43
2023-07-03T17:24:06.559Z,2.13
2023-07-03T17:26:35.972Z,1.97
2023-07-03T17:29:08.259Z,4.13
2023-07-03T17:31:36.865Z,3.30
2023-07-03T17:34:06.324Z,4.97
2023-07-03T17:36:36.105Z,2.70
2023-07-03T17:39:05.571Z,2.60
2023-07-03T17:41:36.753Z,1.60
2023-07-03T17:44:09.826Z,2.97
2023-07-03T17:46:41.301Z,10.20
2023-07-03T17:49:10.083Z,4.80
2023-07-03T17:51:40.610Z,3.63
2023-07-03T17:54:09.164Z,2.60
2023-07-03T17:56:37.947Z,4.70
2023-07-03T17:59:09.475Z,1.37
2023-07-03T18:01:38.420Z,1.17
2023-07-03T18:04:07.099Z,2.53
2023-07-03T18:06:37.212Z,1.50
2023-07-03T18:09:06.135Z,3.47
2023-07-03T18:11:36.755Z,2.77
2023-07-03T18:14:08.627Z,4.00
2023-07-03T18:16:37.680Z,2.00
2023-07-03T18:19:06.953Z,2.07
2023-07-03T18:21:35.836Z,1.33
2023-07-03T18:24:07.689Z,3.40
2023-07-03T18:26:37.103Z,2.87
2023-07-03T18:29:07.863Z,1.87
2023-07-03T18:31:36.719Z,12.90
2023-07-03T18:34:07.430Z,7.47
2023-07-03T18:36:40.800Z,6.73
2023-07-03T18:39:10.523Z,3.90
2023-07-03T18:41:39.974Z,5.20
2023-07-03T18:44:10.267Z,7.20
2023-07-03T18:46:39.505Z,8.03
2023-07-03T18:49:08.496Z,6.43
2023-07-03T18:51:37.949Z,11.73
2023-07-03T18:54:07.070Z,6.23
2023-07-03T18:56:35.598Z,15.10
2023-07-03T18:59:04.764Z,13.30
2023-07-03T19:01:38.622Z,3.30
2023-07-03T19:04:07.855Z,2.77
2023-07-03T19:06:36.716Z,5.07
2023-07-03T19:09:06.920Z,3.40
2023-07-03T19:11:35.796Z,2.20
2023-07-03T19:14:04.538Z,5.60
2023-07-03T19:16:35.141Z,6.87
2023-07-03T19:19:05.404Z,2.20
2023-07-03T19:21:34.449Z,4.57
2023-07-03T19:24:04.712Z,2.40
2023-07-03T19:26:38.714Z,4.90
2023-07-03T19:29:07.657Z,1.10
2023-07-03T19:31:38.716Z,3.40
2023-07-03T19:34:07.419Z,2.67
2023-07-03T19:36:36.650Z,3.50
2023-07-03T19:39:06.452Z,2.43
2023-07-03T19:41:36.248Z,4.63
2023-07-03T19:44:09.461Z,5.20
2023-07-03T19:46:39.700Z,3.50
2023-07-03T19:49:09.086Z,3.20
2023-07-03T19:51:40.241Z,3.03
2023-07-03T19:54:09.249Z,4.47
2023-07-03T19:56:40.452Z,2.40
2023-07-03T19:59:16.794Z,4.67
2023-07-03T20:01:48.623Z,6.10
2023-07-03T20:04:18.492Z,3.50
2023-07-03T20:06:47.420Z,1.43
2023-07-03T20:09:17.038Z,1.53
2023-07-03T20:11:46.030Z,3.33
2023-07-03T20:14:14.667Z,2.63
2023-07-03T20:16:44.270Z,93.23
2023-07-03T20:19:15.099Z,16.60
2023-07-03T20:21:44.022Z,4.50
2023-07-03T20:24:14.786Z,2.50
2023-07-03T20:26:43.644Z,3.57
2023-07-03T20:29:13.975Z,3.90
2023-07-03T20:31:43.483Z,2.20
2023-07-03T20:34:14.473Z,3.27
2023-07-03T20:36:43.998Z,4.70
2023-07-03T20:39:13.140Z,2.03
2023-07-03T20:41:42.052Z,4.33
2023-07-03T20:44:12.731Z,4.37
2023-07-03T20:46:41.781Z,3.07
2023-07-03T20:49:12.621Z,3.03
2023-07-03T20:51:43.057Z,3.83
2023-07-03T20:54:22.854Z,5.40
2023-07-03T20:56:51.892Z,2.83
2023-07-03T20:59:21.290Z,2.13
2023-07-03T21:01:50.512Z,2.67
2023-07-03T21:04:19.649Z,2.57
2023-07-03T21:06:51.630Z,3.53
2023-07-03T21:09:20.533Z,3.63
2023-07-03T21:11:50.605Z,2.73
2023-07-03T21:14:20.290Z,2.20
2023-07-03T21:16:49.456Z,1.67
2023-07-03T21:19:18.526Z,4.10
2023-07-03T21:21:49.730Z,3.87
2023-07-03T21:24:18.744Z,4.87
2023-07-03T21:26:48.774Z,2.30
2023-07-03T21:29:17.572Z,2.20
2023-07-03T21:31:46.509Z,3.03
2023-07-03T21:34:15.406Z,2.77
2023-07-03T21:36:44.501Z,2.10
2023-07-03T21:39:15.054Z,2.43
2023-07-03T21:41:44.810Z,2.20
2023-07-03T21:44:15.946Z,3.43
2023-07-03T21:46:45.060Z,1.97
2023-07-03T21:49:16.493Z,4.00
2023-07-03T21:51:46.362Z,2.27
2023-07-03T21:54:17.082Z,2.20
2023-07-03T21:56:46.706Z,2.17
2023-07-03T21:59:15.798Z,4.20
2023-07-03T22:01:51.623Z,3.87
2023-07-03T22:04:21.468Z,2.00
2023-07-03T22:06:50.511Z,4.23
2023-07-03T22:09:32.538Z,2.53
2023-07-03T22:12:07.802Z,3.53
2023-07-03T22:14:36.900Z,2.87
2023-07-03T22:17:07.000Z,2.83
2023-07-03T22:19:39.066Z,4.00
2023-07-03T22:22:10.796Z,3.97
2023-07-03T22:24:41.271Z,9.13
2023-07-03T22:27:10.121Z,5.60
2023-07-03T22:29:39.075Z,2.67
2023-07-03T22:32:11.708Z,3.53
2023-07-03T22:34:40.680Z,1.90
2023-07-03T22:37:10.974Z,2.03
2023-07-03T22:39:41.649Z,4.20
2023-07-03T22:42:10.803Z,3.40
2023-07-03T22:44:39.907Z,4.87
2023-07-03T22:47:11.071Z,4.00
2023-07-03T22:49:41.128Z,2.20
2023-07-03T22:52:12.270Z,10.17
2023-07-03T22:54:43.335Z,3.90
2023-07-03T22:57:15.150Z,3.57
2023-07-03T22:59:46.555Z,4.10
2023-07-03T23:02:16.962Z,5.47
2023-07-03T23:04:46.450Z,4.87
2023-07-03T23:07:15.938Z,3.07
2023-07-03T23:09:47.837Z,4.17
2023-07-03T23:12:17.700Z,3.93
2023-07-03T23:14:50.317Z,4.00
2023-07-03T23:17:27.427Z,5.03
2023-07-03T23:19:56.326Z,4.50
2023-07-03T23:22:27.332Z,2.93
2023-07-03T23:25:00.197Z,5.23
2023-07-03T23:27:29.877Z,4.03
2023-07-03T23:29:59.411Z,5.50
2023-07-03T23:32:28.981Z,3.40
2023-07-03T23:34:58.189Z,6.27
2023-07-03T23:37:27.888Z,3.13
2023-07-03T23:39:59.276Z,4.40
2023-07-03T23:42:28.378Z,4.50
2023-07-03T23:44:57.535Z,4.20
2023-07-03T23:47:27.439Z,2.50
2023-07-03T23:49:56.575Z,3.47
2023-07-03T23:52:25.649Z,3.07
2023-07-03T23:54:55.451Z,6.07
2023-07-03T23:57:26.127Z,3.77
2023-07-03T23:59:54.730Z,3.90
